Time;durP1;ratioP1;P1;durP2;ratioP2;P2;SDS_P1;SDS_P2;PMS_P1;PMS_P2;Temp;Humidity;BMP_temperature;BMP_pressure;BME280_temperature;BME280_humidity;BME280_pressure;Samples;Min_cycle;Max_cycle;Signal;HPM_P1;HPM_P2
2023/05/07 00:01:46;;;;;;;3.85;2.80;;;;;;;17.00;44.81;101202.34;5014687;28;20436;-68
2023/05/07 00:04:14;;;;;;;5.13;2.88;;;;;;;16.98;44.84;101201.66;5018630;28;20431;-69
2023/05/07 00:06:42;;;;;;;4.53;3.10;;;;;;;16.96;45.08;101198.16;5024652;28;20061;-69
2023/05/07 00:09:10;;;;;;;4.95;3.08;;;;;;;16.94;44.93;101200.22;5003454;28;20045;-69
2023/05/07 00:11:38;;;;;;;5.25;2.80;;;;;;;16.93;45.37;101201.25;5024237;28;20424;-69
2023/05/07 00:14:06;;;;;;;4.50;2.65;;;;;;;16.92;45.42;101195.88;4999659;28;20104;-69
2023/05/07 00:16:35;;;;;;;4.05;2.55;;;;;;;16.93;45.56;101204.00;5005267;28;20045;-69
2023/05/07 00:19:04;;;;;;;4.60;2.63;;;;;;;16.92;44.95;101193.13;5021360;28;20045;-69
2023/05/07 00:21:32;;;;;;;3.60;2.50;;;;;;;16.89;45.33;101186.03;5006193;28;20057;-69
2023/05/07 00:24:00;;;;;;;5.85;2.88;;;;;;;16.88;45.18;101195.38;4997258;28;20473;-69
2023/05/07 00:26:28;;;;;;;4.50;2.60;;;;;;;16.88;45.54;101192.59;5009374;28;20061;-69
2023/05/07 00:28:56;;;;;;;4.25;2.47;;;;;;;16.88;45.34;101191.72;5021837;28;20113;-69
2023/05/07 00:31:24;;;;;;;4.05;2.55;;;;;;;16.89;45.25;101190.69;5016479;28;20045;-69
2023/05/07 00:33:54;;;;;;;3.47;2.47;;;;;;;16.91;45.31;101191.38;4995892;28;20042;-69
2023/05/07 00:36:22;;;;;;;3.55;2.58;;;;;;;16.89;45.72;101188.81;5023828;28;20478;-69
2023/05/07 00:38:50;;;;;;;4.55;2.88;;;;;;;16.90;45.70;101195.19;5028877;28;20065;-69
2023/05/07 00:41:18;;;;;;;4.47;2.83;;;;;;;16.91;45.12;101196.91;5023624;28;20494;-69
2023/05/07 00:43:46;;;;;;;4.80;2.90;;;;;;;16.91;45.15;101185.84;5023617;28;20493;-69
2023/05/07 00:46:15;;;;;;;4.32;2.70;;;;;;;16.91;45.65;101183.09;5025525;28;20580;-69
2023/05/07 00:48:43;;;;;;;5.63;3.20;;;;;;;16.89;45.22;101180.50;5014288;28;20056;-69
2023/05/07 00:51:13;;;;;;;4.65;2.95;;;;;;;16.90;45.58;101176.72;5021667;28;20385;-69
2023/05/07 00:53:41;;;;;;;3.85;2.80;;;;;;;16.87;45.12;101178.94;5014576;28;20073;-70
2023/05/07 00:56:09;;;;;;;3.90;2.63;;;;;;;16.85;45.68;101184.63;5007508;28;20058;-69
2023/05/07 00:58:37;;;;;;;4.50;2.78;;;;;;;16.84;45.71;101184.78;5003995;28;20609;-69
2023/05/07 01:01:06;;;;;;;4.47;2.67;;;;;;;16.82;45.23;101173.06;5015424;28;20053;-70
2023/05/07 01:03:34;;;;;;;3.90;2.88;;;;;;;16.80;45.77;101183.41;5029460;28;20122;-69
2023/05/07 01:06:03;;;;;;;3.80;2.70;;;;;;;16.80;45.81;101187.03;5024858;28;20045;-69
2023/05/07 01:08:34;;;;;;;4.45;3.00;;;;;;;16.81;45.54;101187.91;5004678;28;20041;-70
2023/05/07 01:11:03;;;;;;;4.65;2.80;;;;;;;16.78;45.74;101189.09;5021121;28;20053;-69
2023/05/07 01:13:32;;;;;;;4.43;2.80;;;;;;;16.78;45.75;101191.00;5022621;28;20057;-69
2023/05/07 01:16:00;;;;;;;3.70;2.75;;;;;;;16.78;45.84;101191.88;5000076;28;20132;-70
2023/05/07 01:18:29;;;;;;;4.03;2.72;;;;;;;16.78;45.65;101185.47;5004478;28;20054;-69
2023/05/07 01:20:59;;;;;;;5.43;2.70;;;;;;;16.79;45.49;101181.69;5004342;28;20053;-69
2023/05/07 01:23:31;;;;;;;4.45;2.90;;;;;;;16.78;45.57;101183.56;5008139;28;20048;-69
2023/05/07 01:25:59;;;;;;;4.20;2.88;;;;;;;16.75;45.64;101178.38;5018981;28;20072;-69
2023/05/07 01:28:28;;;;;;;4.15;2.60;;;;;;;16.73;45.27;101185.13;5027832;28;20070;-69
2023/05/07 01:31:03;;;;;;;5.00;2.85;;;;;;;16.73;45.77;101177.69;5006809;28;20512;-69
2023/05/07 01:33:35;;;;;;;4.70;2.75;;;;;;;16.72;45.53;101172.31;5005454;28;20432;-69
2023/05/07 01:36:06;;;;;;;4.00;2.75;;;;;;;16.70;45.74;101179.91;5004325;28;20053;-69
2023/05/07 01:38:37;;;;;;;4.20;2.65;;;;;;;16.69;45.92;101168.00;5010523;28;20073;-69
2023/05/07 01:41:05;;;;;;;5.55;2.75;;;;;;;16.66;45.58;101167.47;5028329;28;20076;-69
2023/05/07 01:43:34;;;;;;;4.68;2.85;;;;;;;16.64;45.27;101160.22;5012655;28;20050;-70
2023/05/07 01:46:04;;;;;;;4.65;2.88;;;;;;;16.63;45.59;101158.47;5017372;28;20049;-69
2023/05/07 01:48:33;;;;;;;4.15;2.88;;;;;;;16.61;45.28;101163.28;5018248;28;20093;-69
2023/05/07 01:51:02;;;;;;;4.22;2.80;;;;;;;16.60;45.82;101163.47;5021342;28;20053;-69
2023/05/07 01:53:38;;;;;;;4.60;2.67;;;;;;;16.60;45.81;101166.22;5007046;28;20125;-69
2023/05/07 01:56:07;;;;;;;3.75;2.53;;;;;;;16.56;45.43;101171.22;5018948;28;20121;-69
2023/05/07 01:58:37;;;;;;;4.78;2.85;;;;;;;16.54;45.51;101169.66;4998958;28;20061;-69
2023/05/07 02:01:05;;;;;;;3.55;2.80;;;;;;;16.54;45.52;101172.41;5009343;28;20057;-69
2023/05/07 02:03:33;;;;;;;4.82;2.80;;;;;;;16.51;45.53;101162.56;5003943;28;20404;-69
2023/05/07 02:06:09;;;;;;;5.15;3.00;;;;;;;16.50;45.80;101160.81;5009864;28;20049;-69
2023/05/07 02:08:40;;;;;;;3.70;2.80;;;;;;;16.50;46.17;101163.59;5018103;28;20296;-69
2023/05/07 02:11:10;;;;;;;4.18;2.90;;;;;;;16.46;45.67;101164.97;5016239;28;20042;-70
2023/05/07 02:13:38;;;;;;;4.63;2.90;;;;;;;16.45;45.71;101171.50;5025529;28;20053;-69
2023/05/07 02:16:06;;;;;;;5.20;2.55;;;;;;;16.45;45.86;101170.66;5021762;28;20064;-69
2023/05/07 02:18:35;;;;;;;4.90;2.83;;;;;;;16.42;46.00;101166.31;5025370;28;20390;-70
2023/05/07 02:21:03;;;;;;;4.63;2.80;;;;;;;16.41;45.90;101166.50;4995624;28;20132;-69
2023/05/07 02:23:31;;;;;;;4.38;2.75;;;;;;;16.41;46.52;101163.75;5011945;28;20041;-69
2023/05/07 02:26:00;;;;;;;4.38;2.88;;;;;;;16.40;46.02;101165.63;5015430;28;20055;-69
2023/05/07 02:28:29;;;;;;;4.03;2.70;;;;;;;16.38;46.54;101166.81;5025778;28;20095;-69
2023/05/07 02:31:03;;;;;;;4.68;2.83;;;;;;;16.39;46.41;101165.78;5005812;28;20065;-69
2023/05/07 02:33:32;;;;;;;4.07;2.63;;;;;;;16.36;46.10;101161.44;5026040;28;20041;-69
2023/05/07 02:36:07;;;;;;;4.65;2.92;;;;;;;16.39;46.72;101160.25;5022607;28;20160;-69
2023/05/07 02:38:37;;;;;;;5.43;2.78;;;;;;;16.34;46.24;101159.88;5007518;28;20521;-70
2023/05/07 02:41:07;;;;;;;4.05;2.58;;;;;;;16.35;46.24;101162.47;5026782;28;20413;-69
2023/05/07 02:43:35;;;;;;;3.60;2.90;;;;;;;16.33;46.32;101163.69;5001214;28;20050;-69
2023/05/07 02:46:04;;;;;;;4.05;2.72;;;;;;;16.32;46.44;101160.06;5020749;28;20049;-69
2023/05/07 02:48:35;;;;;;;4.20;2.72;;;;;;;16.31;46.57;101160.22;5007078;28;20060;-68
2023/05/07 02:51:03;;;;;;;3.45;2.42;;;;;;;16.29;46.05;101162.28;5023799;28;20053;-69
2023/05/07 02:53:32;;;;;;;4.03;2.28;;;;;;;16.27;45.88;101166.06;5021052;28;20044;-69
2023/05/07 02:56:02;;;;;;;3.28;2.47;;;;;;;16.29;46.26;101165.91;5004829;28;20053;-70
2023/05/07 02:58:31;;;;;;;4.25;2.25;;;;;;;16.28;46.47;101169.69;5030376;28;20052;-70
2023/05/07 03:01:01;;;;;;;4.13;2.30;;;;;;;16.27;46.23;101171.59;5004766;28;20065;-68
2023/05/07 03:03:55;;;;;;;3.05;2.00;;;;;;;16.26;45.97;101172.63;5017772;28;20042;-69
2023/05/07 03:06:23;;;;;;;2.78;2.05;;;;;;;16.27;46.41;101173.47;5011520;28;20064;-69
2023/05/07 03:08:51;;;;;;;3.85;2.28;;;;;;;16.28;45.75;101169.69;5024751;28;20095;-69
2023/05/07 03:11:19;;;;;;;3.40;2.30;;;;;;;16.27;46.10;101166.06;5021210;28;20057;-69
2023/05/07 03:13:49;;;;;;;3.25;2.03;;;;;;;16.28;45.97;101175.22;5020040;28;20033;-69
2023/05/07 03:16:19;;;;;;;4.07;2.30;;;;;;;16.23;45.47;101170.19;5002082;28;20054;-69
2023/05/07 03:18:47;;;;;;;3.65;2.42;;;;;;;16.23;45.68;101161.06;5022087;28;20084;-69
2023/05/07 03:21:15;;;;;;;4.03;2.20;;;;;;;16.22;45.68;101162.06;5017419;28;20088;-68
2023/05/07 03:23:42;;;;;;;3.35;2.13;;;;;;;16.20;45.37;101158.59;5012213;28;20049;-69
2023/05/07 03:26:10;;;;;;;3.58;2.20;;;;;;;16.16;45.86;101151.66;5021373;28;20054;-69
2023/05/07 03:28:38;;;;;;;2.67;1.85;;;;;;;16.14;45.41;101156.47;5020171;28;20400;-69
2023/05/07 03:31:13;;;;;;;;;;;;;;;15.85;46.02;101156.78;5022822;28;20480;-69
2023/05/07 03:33:51;;;;;;;3.28;1.88;;;;;;;16.08;45.56;101155.25;5009905;28;19987;-69
2023/05/07 03:36:19;;;;;;;3.88;2.10;;;;;;;16.07;45.66;101158.16;5010045;28;20087;-69
2023/05/07 03:38:47;;;;;;;3.08;1.88;;;;;;;16.07;45.88;101159.03;5024398;28;20073;-69
2023/05/07 03:41:20;;;;;;;3.20;1.90;;;;;;;16.04;45.39;101152.94;5026228;28;20432;-69
2023/05/07 03:43:48;;;;;;;3.92;2.05;;;;;;;16.05;46.10;101157.44;5014734;28;20038;-68
2023/05/07 03:46:17;;;;;;;3.55;1.95;;;;;;;16.07;45.94;101159.03;5009194;28;20057;-69
2023/05/07 03:48:45;;;;;;;3.88;1.90;;;;;;;16.06;45.59;101156.41;5018786;28;20057;-69
2023/05/07 03:51:14;;;;;;;2.33;1.65;;;;;;;16.05;45.97;101160.22;5016682;28;20049;-69
2023/05/07 03:53:42;;;;;;;3.85;1.90;;;;;;;16.05;45.46;101161.06;5010980;28;20181;-69
2023/05/07 03:56:10;;;;;;;3.20;1.83;;;;;;;16.05;46.04;101161.06;5013937;28;20555;-69
2023/05/07 03:58:40;;;;;;;4.25;2.00;;;;;;;16.06;46.01;101159.19;5029605;28;20136;-69
2023/05/07 04:01:11;;;;;;;3.30;1.90;;;;;;;16.07;45.35;101170.06;5027022;28;20421;-68
2023/05/07 04:03:40;;;;;;;2.95;1.75;;;;;;;16.09;45.42;101170.75;5002317;28;20058;-68
2023/05/07 04:06:08;;;;;;;3.75;2.10;;;;;;;16.08;45.63;101170.94;4999646;28;20062;-69
2023/05/07 04:08:37;;;;;;;3.78;2.10;;;;;;;16.08;45.65;101165.41;5020564;28;20088;-69
2023/05/07 04:11:06;;;;;;;3.20;1.85;;;;;;;16.09;45.37;101175.41;4996716;28;20116;-68
2023/05/07 04:13:36;;;;;;;3.53;2.05;;;;;;;16.09;45.67;101180.94;5025668;28;20137;-69
2023/05/07 04:16:06;;;;;;;3.08;1.92;;;;;;;16.08;45.75;101177.31;5014457;28;20051;-69
2023/05/07 04:18:36;;;;;;;3.42;2.20;;;;;;;16.08;45.59;101176.47;5014570;28;20711;-68
2023/05/07 04:21:06;;;;;;;2.63;1.70;;;;;;;16.11;45.28;101184.41;5021759;28;20124;-68
2023/05/07 04:23:38;;;;;;;3.70;1.75;;;;;;;16.10;45.25;101185.41;4992960;28;20513;-70
2023/05/07 04:26:10;;;;;;;3.30;1.83;;;;;;;16.09;45.62;101180.94;5018548;28;20078;-69
2023/05/07 04:28:43;;;;;;;2.50;1.88;;;;;;;16.11;45.70;101184.41;5023993;28;20038;-70
2023/05/07 04:31:12;;;;;;;3.67;1.98;;;;;;;16.11;45.24;101179.75;5022200;28;20054;-69
2023/05/07 04:33:41;;;;;;;4.07;2.00;;;;;;;16.12;45.13;101177.84;5020290;28;20053;-69
2023/05/07 04:36:14;;;;;;;3.63;2.22;;;;;;;16.12;45.60;101175.09;4997612;28;20386;-70
2023/05/07 04:38:51;;;;;;;3.35;1.70;;;;;;;16.08;45.29;101174.56;5026044;28;20049;-70
2023/05/07 04:41:20;;;;;;;2.75;1.77;;;;;;;16.08;45.32;101171.81;4999053;28;20400;-69
2023/05/07 04:43:49;;;;;;;3.80;2.10;;;;;;;16.05;45.00;101172.13;5004183;28;20455;-69
2023/05/07 04:46:19;;;;;;;2.75;1.77;;;;;;;16.04;45.03;101175.91;5003368;28;20068;-70
2023/05/07 04:48:48;;;;;;;2.60;1.70;;;;;;;16.01;45.35;101159.66;5003598;28;20049;-69
2023/05/07 04:51:17;;;;;;;2.95;1.70;;;;;;;16.02;45.28;101166.03;5007806;28;20136;-69
2023/05/07 04:53:45;;;;;;;2.83;1.92;;;;;;;15.99;45.07;101167.25;5007488;28;20045;-69
2023/05/07 04:56:13;;;;;;;3.03;1.67;;;;;;;15.98;45.50;101167.41;5009386;28;20449;-69
2023/05/07 04:58:44;;;;;;;3.17;1.90;;;;;;;15.96;45.22;101174.97;4998988;28;20436;-69
2023/05/07 05:01:12;;;;;;;4.40;2.10;;;;;;;15.95;45.64;101171.34;5006582;28;20045;-69
2023/05/07 05:03:41;;;;;;;3.92;1.80;;;;;;;15.95;45.26;101167.72;5004527;28;20046;-69
2023/05/07 05:06:09;;;;;;;2.70;1.77;;;;;;;15.94;45.45;101172.38;5028167;28;20058;-70
2023/05/07 05:08:38;;;;;;;3.65;1.58;;;;;;;15.95;45.64;101168.59;5027778;28;20518;-69
2023/05/07 05:11:06;;;;;;;2.78;1.80;;;;;;;15.94;45.64;101168.75;5020582;28;20057;-69
2023/05/07 05:13:36;;;;;;;3.30;2.03;;;;;;;15.93;45.43;101173.41;5011331;28;20133;-69
2023/05/07 05:16:11;;;;;;;3.22;1.70;;;;;;;15.94;45.29;101174.28;5007419;28;20041;-69
2023/05/07 05:18:40;;;;;;;2.47;1.75;;;;;;;15.95;45.34;101176.00;4996755;28;20117;-69
2023/05/07 05:21:09;;;;;;;2.90;1.85;;;;;;;15.97;45.33;101176.72;5001341;28;20116;-69
2023/05/07 05:23:39;;;;;;;3.15;1.90;;;;;;;15.99;45.87;101180.19;5019054;28;20073;-69
2023/05/07 05:26:07;;;;;;;4.53;2.00;;;;;;;15.98;45.42;101181.22;5021750;28;20045;-69
2023/05/07 05:28:35;;;;;;;4.05;1.80;;;;;;;15.99;45.37;101181.06;5026821;28;20052;-69
2023/05/07 05:31:04;;;;;;;2.72;1.80;;;;;;;15.99;45.80;101172.78;5019379;28;20479;-69
2023/05/07 05:33:35;;;;;;;2.42;1.70;;;;;;;16.01;45.92;101181.75;4996747;28;20045;-69
2023/05/07 05:36:06;;;;;;;2.00;1.50;;;;;;;16.04;46.17;101180.56;5010443;28;20046;-69
2023/05/07 05:38:34;;;;;;;2.70;1.65;;;;;;;16.05;46.09;101183.16;5020760;28;20053;-68
2023/05/07 05:41:04;;;;;;;3.78;1.90;;;;;;;16.10;45.49;101194.56;5016852;28;20563;-68
2023/05/07 05:43:32;;;;;;;2.97;2.00;;;;;;;16.10;45.98;101191.81;5007366;28;20148;-69
2023/05/07 05:46:00;;;;;;;3.80;1.60;;;;;;;16.12;45.64;101195.28;5023804;28;20046;-71
2023/05/07 05:48:30;;;;;;;3.22;1.70;;;;;;;16.16;45.97;101201.38;5002299;28;20073;-68
2023/05/07 05:51:01;;;;;;;3.30;1.55;;;;;;;16.18;46.02;101204.84;5020861;28;20049;-69
2023/05/07 05:53:29;;;;;;;2.58;1.70;;;;;;;16.21;45.37;101204.53;5014590;28;20528;-68
2023/05/07 05:55:57;;;;;;;3.40;2.00;;;;;;;16.23;45.75;101208.00;5008267;23;20089;-68
2023/05/07 05:58:27;;;;;;;2.70;1.65;;;;;;;16.26;45.52;101208.53;5003305;28;20140;-68
2023/05/07 06:01:02;;;;;;;4.20;1.73;;;;;;;16.26;45.41;101203.00;5020942;28;20045;-68
2023/05/07 06:03:32;;;;;;;2.90;1.80;;;;;;;16.28;45.84;101211.13;5010328;28;20054;-68
2023/05/07 06:06:02;;;;;;;3.33;1.80;;;;;;;16.29;45.70;101212.00;5009369;28;20045;-68
2023/05/07 06:08:31;;;;;;;4.28;2.30;;;;;;;16.32;45.88;101209.78;4999123;28;20132;-68
2023/05/07 06:10:59;;;;;;;3.63;1.85;;;;;;;16.33;45.77;101208.72;5002715;28;20111;-68
2023/05/07 06:13:30;;;;;;;2.50;1.80;;;;;;;16.38;45.30;101214.66;5018404;28;20061;-68
2023/05/07 06:15:58;;;;;;;3.40;1.90;;;;;;;16.38;45.59;101211.00;5004213;28;20118;-67
2023/05/07 06:18:26;;;;;;;5.13;2.00;;;;;;;16.38;45.60;101209.13;5022511;28;20047;-68
2023/05/07 06:20:54;;;;;;;2.88;1.67;;;;;;;16.39;45.26;101208.09;5025460;28;20050;-68
2023/05/07 06:23:26;;;;;;;3.80;1.88;;;;;;;16.38;45.16;101209.13;5018210;28;20068;-68
2023/05/07 06:25:54;;;;;;;4.38;1.98;;;;;;;16.43;45.24;101209.47;5014593;28;20044;-68
2023/05/07 06:28:26;;;;;;;3.55;2.03;;;;;;;16.42;45.70;101210.50;5017636;28;20095;-68
2023/05/07 06:30:55;;;;;;;2.40;1.70;;;;;;;16.48;45.16;101214.53;5001829;28;20501;-68
2023/05/07 06:33:23;;;;;;;2.90;1.90;;;;;;;16.47;45.64;101219.19;5004303;28;20038;-68
2023/05/07 06:35:51;;;;;;;2.92;1.80;;;;;;;16.49;45.22;101224.56;5017081;28;20100;-68
2023/05/07 06:38:19;;;;;;;3.10;1.92;;;;;;;16.50;45.49;101224.38;5003640;28;20095;-68
2023/05/07 06:40:49;;;;;;;3.28;1.90;;;;;;;16.55;45.50;101230.28;5019410;28;20041;-68
2023/05/07 06:43:17;;;;;;;2.63;1.80;;;;;;;16.55;45.46;101226.66;5000456;28;20049;-69
2023/05/07 06:45:56;;;;;;;2.95;1.90;;;;;;;16.59;45.76;101230.81;5021672;28;20417;-68
2023/05/07 06:48:24;;;;;;;2.95;1.83;;;;;;;16.58;45.58;101227.19;5017400;28;20046;-68
2023/05/07 06:50:59;;;;;;;3.42;1.92;;;;;;;16.62;45.39;101216.66;5011382;28;20045;-68
2023/05/07 06:53:28;;;;;;;3.08;1.60;;;;;;;16.66;45.90;101219.97;5008882;28;20103;-68
2023/05/07 06:55:56;;;;;;;2.90;1.60;;;;;;;16.69;45.30;101216.88;5007431;28;20112;-68
2023/05/07 06:58:25;;;;;;;3.35;1.70;;;;;;;16.73;45.33;101210.00;5017868;28;20144;-68
2023/05/07 07:00:53;;;;;;;2.92;1.77;;;;;;;16.79;45.39;101220.38;4997332;28;20042;-68
2023/05/07 07:03:22;;;;;;;3.95;1.95;;;;;;;16.86;45.16;101215.91;5009617;28;20053;-66
2023/05/07 07:05:52;;;;;;;3.03;1.83;;;;;;;16.91;45.19;101221.78;5000112;28;20045;-67
2023/05/07 07:08:21;;;;;;;3.38;1.52;;;;;;;16.94;45.48;101225.09;5021916;28;20042;-68
2023/05/07 07:10:49;;;;;;;2.70;1.70;;;;;;;17.00;45.72;101224.47;5016162;28;20042;-68
2023/05/07 07:13:17;;;;;;;2.35;1.60;;;;;;;17.09;45.26;101228.13;5019839;28;20045;-68
2023/05/07 07:15:45;;;;;;;2.70;1.33;;;;;;;17.17;45.17;101239.19;5009365;28;20056;-68
2023/05/07 07:18:13;;;;;;;2.25;1.40;;;;;;;17.26;45.58;101234.56;5019608;28;20124;-68
2023/05/07 07:20:44;;;;;;;3.17;1.60;;;;;;;17.35;44.91;101234.41;4999081;28;20065;-68
2023/05/07 07:23:12;;;;;;;3.25;1.67;;;;;;;17.44;45.10;101235.28;5019216;28;20046;-67
2023/05/07 07:25:40;;;;;;;3.20;1.50;;;;;;;17.54;44.60;101236.00;5020599;28;20068;-67
2023/05/07 07:28:08;;;;;;;2.50;1.52;;;;;;;17.64;44.20;101238.63;5007423;28;20049;-68
2023/05/07 07:30:38;;;;;;;2.45;1.70;;;;;;;17.71;44.46;101232.22;5022254;28;20068;-68
2023/05/07 07:33:06;;;;;;;2.95;1.50;;;;;;;17.81;44.52;101237.63;5031561;28;20076;-67
2023/05/07 07:35:37;;;;;;;2.65;1.60;;;;;;;17.89;43.99;101237.63;5002712;28;20073;-67
2023/05/07 07:38:07;;;;;;;2.90;2.08;;;;;;;17.99;43.65;101241.06;5030916;28;20077;-67
2023/05/07 07:40:36;;;;;;;2.95;1.50;;;;;;;18.07;43.48;101242.97;5018699;28;20136;-68
2023/05/07 07:43:05;;;;;;;2.45;1.63;;;;;;;18.13;43.43;101242.28;5014501;28;20038;-67
2023/05/07 07:45:33;;;;;;;2.38;1.48;;;;;;;18.21;43.66;101233.09;5006772;28;20550;-67
2023/05/07 07:48:02;;;;;;;2.03;1.35;;;;;;;18.28;43.51;101236.91;5019478;28;20050;-71
2023/05/07 07:50:33;;;;;;;2.33;1.60;;;;;;;18.32;43.55;101233.59;5011113;28;20073;-67
2023/05/07 07:53:16;;;;;;;2.72;1.63;;;;;;;18.45;43.21;101244.16;5000806;28;20524;-69
2023/05/07 07:55:44;;;;;;;2.60;1.40;;;;;;;18.50;42.79;101239.81;5012973;28;20268;-68
2023/05/07 07:58:16;;;;;;;3.20;1.52;;;;;;;18.57;42.58;101237.19;5006884;28;20576;-68
2023/05/07 08:00:44;;;;;;;2.60;1.40;;;;;;;18.63;42.69;101235.66;4996712;28;20080;-68
2023/05/07 08:03:14;;;;;;;3.03;1.67;;;;;;;18.69;42.78;101249.66;5002404;28;20157;-68
2023/05/07 08:05:45;;;;;;;2.92;1.60;;;;;;;18.75;42.78;101248.06;4999642;28;20081;-68
2023/05/07 08:08:13;;;;;;;2.55;1.55;;;;;;;18.82;42.39;101249.06;5011203;28;20050;-68
2023/05/07 08:10:44;;;;;;;2.63;1.70;;;;;;;18.91;42.03;101248.00;5003764;28;20147;-68
2023/05/07 08:13:19;;;;;;;2.40;1.42;;;;;;;18.96;42.41;101245.56;5008672;28;20077;-68
2023/05/07 08:15:47;;;;;;;2.55;1.45;;;;;;;19.05;41.87;101252.78;4997331;28;20527;-68
2023/05/07 08:18:16;;;;;;;3.38;1.58;;;;;;;19.14;41.88;101253.63;5001231;28;20034;-68
2023/05/07 08:20:45;;;;;;;2.53;1.45;;;;;;;19.21;41.58;101241.63;5001048;28;20521;-67
2023/05/07 08:23:17;;;;;;;3.22;1.77;;;;;;;19.25;41.53;101243.03;5009872;28;20489;-67
2023/05/07 08:25:48;;;;;;;2.08;1.38;;;;;;;19.38;41.13;101247.97;5025569;28;20064;-68
2023/05/07 08:28:16;;;;;;;2.70;1.50;;;;;;;19.43;41.38;101253.84;5004259;28;20045;-68
2023/05/07 08:30:44;;;;;;;2.47;1.40;;;;;;;19.50;41.52;101243.72;5018143;28;20056;-70
2023/05/07 08:33:12;;;;;;;2.38;1.48;;;;;;;19.57;40.97;101250.28;5016370;28;20063;-68
2023/05/07 08:35:40;;;;;;;2.83;1.48;;;;;;;19.64;40.90;101248.47;5021288;28;20037;-70
2023/05/07 08:38:09;;;;;;;2.53;1.40;;;;;;;19.70;41.10;101249.69;5006163;28;20053;-70
2023/05/07 08:40:40;;;;;;;2.50;1.60;;;;;;;19.80;40.83;101252.19;5014769;28;20501;-72
2023/05/07 08:43:15;;;;;;;2.83;1.63;;;;;;;19.86;40.67;101251.47;5014950;28;20042;-70
2023/05/07 08:45:46;;;;;;;2.72;1.50;;;;;;;19.93;41.06;101249.69;4996911;28;20177;-71
2023/05/07 08:48:17;;;;;;;;;;;;;;;19.69;41.52;101255.41;5013664;28;20493;-73
2023/05/07 08:50:54;;;;;;;1.92;1.23;;;;;;;20.04;41.17;101246.47;4993615;28;19921;-72
2023/05/07 08:53:22;;;;;;;2.28;1.33;;;;;;;20.19;41.26;101252.09;5007353;28;20145;-69
2023/05/07 08:55:51;;;;;;;2.55;1.70;;;;;;;20.30;40.82;101251.59;5002021;28;20562;-72
2023/05/07 08:58:21;;;;;;;2.22;1.52;;;;;;;20.43;40.74;101251.84;5019003;28;20042;-71
2023/05/07 09:00:50;;;;;;;2.50;1.40;;;;;;;20.51;40.32;101251.75;5016657;28;20503;-71
2023/05/07 09:03:18;;;;;;;3.60;1.60;;;;;;;20.62;40.05;101245.72;5015466;28;20115;-70
2023/05/07 09:05:50;;;;;;;2.72;1.60;;;;;;;20.73;39.89;101250.81;4998974;28;20053;-73
2023/05/07 09:08:25;;;;;;;3.35;2.00;;;;;;;20.83;39.36;101253.31;5017961;28;20046;-71
2023/05/07 09:10:54;;;;;;;2.97;1.77;;;;;;;20.93;39.23;101248.34;5008379;28;20041;-72
2023/05/07 09:13:25;;;;;;;2.72;1.40;;;;;;;21.04;38.89;101242.25;5021207;28;20130;-73
2023/05/07 09:15:53;;;;;;;2.35;1.40;;;;;;;21.12;39.01;101241.28;5023117;28;20050;-73
2023/05/07 09:18:21;;;;;;;2.65;1.40;;;;;;;21.19;38.22;101244.19;4997944;28;20281;-72
2023/05/07 09:20:50;;;;;;;2.33;1.40;;;;;;;21.27;37.91;101249.66;5002100;28;20049;-71
2023/05/07 09:23:21;;;;;;;2.38;1.40;;;;;;;21.35;38.00;101247.63;5020477;28;20144;-72
2023/05/07 09:25:49;;;;;;;2.75;1.50;;;;;;;21.40;37.85;101255.38;5019911;28;20123;-72
2023/05/07 09:28:28;;;;;;;2.95;1.55;;;;;;;21.48;37.19;101250.56;5029854;28;20133;-71
2023/05/07 09:30:57;;;;;;;2.53;1.27;;;;;;;21.51;37.12;101246.53;5015993;28;20064;-74
2023/05/07 09:33:28;;;;;;;2.45;1.50;;;;;;;21.58;36.44;101252.16;4998876;28;20072;-72
2023/05/07 09:35:56;;;;;;;2.72;1.50;;;;;;;21.57;36.86;101250.44;5001176;28;20429;-72
2023/05/07 09:38:24;;;;;;;2.70;1.52;;;;;;;21.62;36.83;101248.78;5022250;28;20026;-72
2023/05/07 09:41:04;;;;;;;;;;;;;;;21.36;37.22;101254.03;5020054;28;20070;-72
2023/05/07 09:43:38;;;;;;;1.80;1.25;;;;;;;21.64;36.52;101255.03;5025710;28;19953;-73
2023/05/07 09:46:09;;;;;;;2.17;1.40;;;;;;;21.67;36.26;101251.84;4999234;28;20042;-70
2023/05/07 09:48:39;;;;;;;3.53;1.60;;;;;;;21.69;36.17;101255.28;5009879;28;20088;-72
2023/05/07 09:51:16;;;;;;;2.97;1.60;;;;;;;21.71;35.63;101246.72;5001777;28;20041;-73
2023/05/07 09:53:46;;;;;;;2.00;1.45;;;;;;;21.72;36.40;101249.31;4996478;28;20438;-73
2023/05/07 09:56:16;;;;;;;2.30;1.33;;;;;;;21.72;36.17;101248.47;5013916;28;20441;-73
2023/05/07 09:58:46;;;;;;;4.35;2.25;;;;;;;21.74;35.82;101244.41;5020687;28;20061;-64
2023/05/07 10:01:14;;;;;;;5.38;2.83;;;;;;;21.75;36.34;101239.72;5004887;28;20184;-63
2023/05/07 10:03:45;;;;;;;4.50;2.58;;;;;;;21.80;36.38;101239.97;4999971;28;20050;-66
2023/05/07 10:06:15;;;;;;;3.08;1.80;;;;;;;21.82;36.40;101237.84;5029893;28;20046;-64
2023/05/07 10:08:44;;;;;;;2.60;1.58;;;;;;;21.85;36.05;101235.50;5007374;28;20046;-66
2023/05/07 10:11:13;;;;;;;4.95;1.70;;;;;;;21.91;36.58;101233.03;5007030;28;20048;-65
2023/05/07 10:13:43;;;;;;;4.70;2.22;;;;;;;21.98;37.01;101228.38;5005619;28;20041;-65
2023/05/07 10:16:13;;;;;;;4.55;2.30;;;;;;;22.06;36.71;101234.69;5006500;28;20129;-62
2023/05/07 10:18:46;;;;;;;3.20;1.70;;;;;;;22.13;36.69;101218.00;5019820;28;20042;-69
2023/05/07 10:21:21;;;;;;;3.13;1.60;;;;;;;22.23;36.68;101229.69;5006156;28;20071;-70
2023/05/07 10:23:57;;;;;;;2.22;1.42;;;;;;;22.33;36.69;101229.31;5010916;28;20111;-69
2023/05/07 10:26:28;;;;;;;2.45;1.35;;;;;;;22.44;36.05;101232.41;5006962;28;20060;-71
2023/05/07 10:29:02;;;;;;;2.70;1.30;;;;;;;22.56;35.39;101225.25;5000637;28;20058;-70
2023/05/07 10:31:50;;;;;;;3.35;1.40;;;;;;;22.68;34.34;101235.81;5023495;28;20445;-71
2023/05/07 10:34:23;;;;;;;1.52;1.10;;;;;;;22.77;34.30;101231.78;5007567;28;20042;-72
2023/05/07 10:36:52;;;;;;;2.00;1.15;;;;;;;22.81;34.72;101238.69;5008648;28;20041;-70
2023/05/07 10:39:22;;;;;;;2.22;1.25;;;;;;;22.88;34.10;101229.28;5014367;28;20038;-71
2023/05/07 10:41:50;;;;;;;2.00;1.20;;;;;;;22.92;33.52;101229.75;5000413;28;20404;-70
2023/05/07 10:44:28;;;;;;;2.05;1.13;;;;;;;23.00;32.52;101236.00;5020164;28;20052;-70
2023/05/07 10:47:10;;;;;;;3.80;1.10;;;;;;;23.02;32.80;101235.78;5004758;28;20049;-71
2023/05/07 10:50:18;;;;;;;2.80;1.25;;;;;;;23.05;32.66;101228.94;5014005;28;20077;-70
2023/05/07 10:53:06;;;;;;;1.85;1.05;;;;;;;23.06;33.36;101225.94;5016278;28;20048;-69
2023/05/07 10:55:34;;;;;;;2.53;1.30;;;;;;;23.12;33.39;101227.03;5003320;28;20518;-70
2023/05/07 10:58:26;;;;;;;2.90;1.35;;;;;;;23.18;32.69;101220.63;5009736;28;20475;-71
2023/05/07 11:01:54;;;;;;;2.47;1.10;;;;;;;23.23;32.65;101218.97;5006928;28;20096;-70
2023/05/07 11:04:34;;;;;;;1.95;1.17;;;;;;;23.30;33.33;101219.84;5002014;28;20049;-72
2023/05/07 11:07:26;;;;;;;2.28;1.38;;;;;;;23.39;32.76;101220.53;5014711;28;20048;-70
2023/05/07 11:10:05;;;;;;;2.30;1.20;;;;;;;23.46;32.80;101218.59;5004917;28;20049;-70
2023/05/07 11:12:50;;;;;;;2.13;1.30;;;;;;;23.51;32.18;101218.81;5025503;28;20421;-70
2023/05/07 11:15:36;;;;;;;2.00;1.25;;;;;;;23.60;31.24;101211.09;5020240;28;20054;-71
2023/05/07 11:18:10;;;;;;;1.63;0.95;;;;;;;23.64;32.02;101215.22;5005058;28;20283;-71
2023/05/07 11:20:56;;;;;;;1.92;1.15;;;;;;;23.70;30.44;101214.34;5009492;28;20061;-72
2023/05/07 11:23:56;;;;;;;1.90;1.20;;;;;;;23.67;30.80;101215.63;5003264;28;20615;-70
2023/05/07 11:26:32;;;;;;;1.55;1.05;;;;;;;23.69;31.25;101209.84;5015653;28;20053;-71
2023/05/07 11:29:01;;;;;;;1.88;1.05;;;;;;;23.71;30.89;101211.34;5020821;28;20038;-69
2023/05/07 11:31:29;;;;;;;1.45;1.02;;;;;;;23.70;30.69;101218.00;5002845;28;20049;-72
2023/05/07 11:34:00;;;;;;;1.92;0.93;;;;;;;23.70;30.78;101211.56;5009012;28;20550;-70
2023/05/07 11:36:32;;;;;;;1.67;1.17;;;;;;;23.70;30.39;101212.41;5018747;28;20513;-71
2023/05/07 11:39:02;;;;;;;1.60;1.00;;;;;;;23.67;30.96;101206.38;5000293;28;20670;-71
2023/05/07 11:41:37;;;;;;;1.95;1.08;;;;;;;23.71;30.52;101204.91;5009457;28;20685;-70
2023/05/07 11:44:05;;;;;;;1.33;0.95;;;;;;;23.69;31.08;101215.41;5018718;28;20436;-71